Time;durP1;ratioP1;P1;durP2;ratioP2;P2;SDS_P1;SDS_P2;PMS_P1;PMS_P2;Temp;Humidity;BMP_temperature;BMP_pressure;BME280_temperature;BME280_humidity;BME280_pressure;Samples;Min_cycle;Max_cycle;Signal;HPM_P1;HPM_P2
2022/07/23 00:01:28;;;;;;;8.95;6.65;;;;;;;15.89;89.83;101673.22;4989288;28;20035;-87
2022/07/23 00:03:54;;;;;;;8.25;6.85;;;;;;;15.89;88.91;101673.22;4978729;28;20030;-87
2022/07/23 00:06:20;;;;;;;11.70;7.35;;;;;;;15.80;88.78;101667.50;4984317;28;20027;-86
2022/07/23 00:08:45;;;;;;;11.18;6.78;;;;;;;15.76;88.61;101666.84;5001052;28;20054;-87
2022/07/23 00:11:11;;;;;;;9.32;6.90;;;;;;;15.73;89.57;101671.53;4995999;28;20031;-86
2022/07/23 00:13:36;;;;;;;11.88;7.22;;;;;;;15.68;89.98;101666.44;4982868;28;20057;-87
2022/07/23 00:16:01;;;;;;;10.93;6.80;;;;;;;15.59;89.49;101651.72;4987063;28;20048;-87
2022/07/23 00:18:27;;;;;;;11.57;6.90;;;;;;;15.68;90.39;101669.13;4985868;28;20043;-87
2022/07/23 00:20:52;;;;;;;7.38;6.55;;;;;;;15.68;89.80;101669.13;4988495;28;20026;-86
2022/07/23 00:23:18;;;;;;;9.40;7.03;;;;;;;15.67;89.73;101673.63;4992807;28;20036;-87
2022/07/23 00:25:44;;;;;;;8.88;6.90;;;;;;;15.60;89.95;101658.81;4988043;28;20032;-87
2022/07/23 00:28:10;;;;;;;11.25;6.68;;;;;;;15.65;89.54;101666.63;4992836;28;20040;-87
2022/07/23 00:30:35;;;;;;;10.02;6.60;;;;;;;15.60;90.11;101671.38;4988837;28;20026;-87
2022/07/23 00:33:03;;;;;;;8.27;7.47;;;;;;;15.48;90.04;101655.97;4990048;28;20106;-87
2022/07/23 00:35:32;;;;;;;10.05;7.32;;;;;;;15.47;91.20;101660.47;4990983;28;20053;-87
2022/07/23 00:38:00;;;;;;;8.75;7.15;;;;;;;15.38;91.31;101645.78;5029915;23;20014;-87
2022/07/23 00:40:26;;;;;;;9.52;7.68;;;;;;;15.52;91.42;101668.25;4997014;28;20132;-88
2022/07/23 00:42:52;;;;;;;11.15;6.90;;;;;;;15.52;91.16;101661.06;5000115;28;20099;-88
2022/07/23 00:45:17;;;;;;;9.10;7.10;;;;;;;15.56;90.88;101665.31;4997088;28;20501;-88
2022/07/23 00:47:43;;;;;;;8.30;6.88;;;;;;;15.56;90.30;101665.31;5008004;28;20041;-88
2022/07/23 00:50:09;;;;;;;9.25;7.50;;;;;;;15.54;90.24;101666.34;5007780;28;20071;-88
2022/07/23 00:52:36;;;;;;;10.35;7.43;;;;;;;15.44;90.49;101650.78;5013649;28;20070;-88
2022/07/23 00:55:03;;;;;;;8.98;7.40;;;;;;;15.42;90.77;101655.38;5012081;28;20165;-88
2022/07/23 00:57:28;;;;;;;9.32;7.68;;;;;;;15.39;90.85;101650.19;5008416;28;20037;-88
2022/07/23 00:59:54;;;;;;;8.93;6.93;;;;;;;15.36;90.70;101647.69;5004616;28;20030;-87
2022/07/23 01:02:19;;;;;;;9.45;7.72;;;;;;;15.24;90.65;101648.38;5004638;28;20061;-87
2022/07/23 01:04:45;;;;;;;9.30;7.70;;;;;;;15.15;90.91;101639.06;5006840;28;20460;-88
2022/07/23 01:07:10;;;;;;;10.13;7.65;;;;;;;15.04;91.84;101654.88;4998440;28;20022;-87
2022/07/23 01:09:37;;;;;;;9.70;7.43;;;;;;;14.95;92.34;101653.59;4985167;28;20040;-87
2022/07/23 01:12:03;;;;;;;9.30;7.45;;;;;;;14.93;91.85;101650.16;5010489;28;20044;-86
2022/07/23 01:14:28;;;;;;;8.50;7.43;;;;;;;14.94;92.06;101643.81;5008062;28;20484;-87
2022/07/23 01:16:53;;;;;;;10.27;7.63;;;;;;;14.98;92.82;101644.53;5008021;28;20032;-88
2022/07/23 01:19:19;;;;;;;8.27;7.25;;;;;;;15.00;92.45;101650.66;5002138;28;20110;-87
2022/07/23 01:21:50;;;;;;;10.13;7.60;;;;;;;14.90;92.01;101644.09;5002662;28;20109;-86
2022/07/23 01:24:16;;;;;;;11.20;7.65;;;;;;;14.83;92.29;101645.38;5014875;28;20026;-87
2022/07/23 01:26:46;;;;;;;10.35;8.18;;;;;;;14.76;92.49;101647.53;5006341;28;20128;-87
2022/07/23 01:29:11;;;;;;;11.55;7.50;;;;;;;14.73;92.64;101647.72;5002116;28;20491;-88
2022/07/23 01:31:37;;;;;;;9.65;7.40;;;;;;;14.73;92.57;101641.50;5010601;28;20037;-87
2022/07/23 01:34:02;;;;;;;9.27;8.00;;;;;;;14.71;93.12;101638.88;5016687;28;20041;-86
2022/07/23 01:36:28;;;;;;;8.93;7.53;;;;;;;14.74;92.36;101649.44;5007997;28;20030;-87
2022/07/23 01:38:54;;;;;;;10.57;8.23;;;;;;;14.64;92.76;101649.09;5005006;28;20117;-87
2022/07/23 01:41:19;;;;;;;8.43;7.35;;;;;;;14.55;92.93;101646.91;5010858;28;20046;-86
2022/07/23 01:43:45;;;;;;;9.60;7.63;;;;;;;14.55;93.54;101641.56;5006477;28;20056;-87
2022/07/23 01:46:10;;;;;;;9.02;7.70;;;;;;;14.52;93.36;101640.84;5021587;28;20380;-86
2022/07/23 01:48:36;;;;;;;8.65;7.32;;;;;;;14.58;93.64;101644.03;5017265;28;20727;-87
2022/07/23 01:51:02;;;;;;;9.20;8.27;;;;;;;14.63;93.15;101643.78;5000879;28;20099;-86
2022/07/23 01:53:27;;;;;;;11.25;7.47;;;;;;;14.65;93.10;101637.41;5013685;28;20064;-87
2022/07/23 01:55:52;;;;;;;8.02;7.22;;;;;;;14.65;92.60;101631.19;5001915;28;20033;-86
2022/07/23 01:58:17;;;;;;;10.70;8.13;;;;;;;14.69;92.99;101635.44;5010866;28;20554;-87
2022/07/23 02:00:43;;;;;;;9.50;7.15;;;;;;;14.65;92.28;101625.84;5009658;28;20029;-87
2022/07/23 02:03:08;;;;;;;12.70;8.32;;;;;;;14.64;92.31;101632.16;5016054;28;20029;-87
2022/07/23 02:05:33;;;;;;;9.45;8.00;;;;;;;14.61;92.66;101626.94;5012944;28;20022;-87
2022/07/23 02:08:00;;;;;;;9.65;7.45;;;;;;;14.61;92.14;101626.94;5011865;28;20061;-87
2022/07/23 02:10:26;;;;;;;10.25;7.45;;;;;;;14.58;92.21;101633.34;5013069;28;20116;-87
2022/07/23 02:12:52;;;;;;;9.98;7.80;;;;;;;14.56;92.41;101624.53;4990266;28;20484;-87
2022/07/23 02:15:17;;;;;;;8.93;8.02;;;;;;;14.55;92.48;101621.94;5013495;28;20080;-88
2022/07/23 02:17:42;;;;;;;8.13;7.32;;;;;;;14.54;92.44;101630.91;4994895;28;20024;-87
2022/07/23 02:20:10;;;;;;;11.27;7.50;;;;;;;14.48;92.54;101632.09;5008433;28;20073;-87
2022/07/23 02:22:37;;;;;;;11.27;7.47;;;;;;;14.40;92.21;101629.81;5012027;28;20030;-87
2022/07/23 02:25:04;;;;;;;9.05;7.07;;;;;;;14.33;91.84;101632.91;5012307;28;20030;-87
2022/07/23 02:27:29;;;;;;;8.82;7.03;;;;;;;14.30;92.47;101622.38;5004843;28;20372;-88
2022/07/23 02:29:54;;;;;;;8.70;6.57;;;;;;;14.29;92.52;101620.63;5006184;28;20072;-87
2022/07/23 02:32:21;;;;;;;8.20;7.03;;;;;;;14.26;92.54;101623.50;5013558;28;20037;-87
2022/07/23 02:34:46;;;;;;;9.80;7.38;;;;;;;14.18;93.20;101624.75;4994622;28;20487;-87
2022/07/23 02:37:12;;;;;;;8.80;7.90;;;;;;;14.14;93.65;101622.34;5010494;28;20018;-87
2022/07/23 02:39:37;;;;;;;10.15;7.18;;;;;;;14.14;93.67;101625.00;5009329;28;20042;-87
2022/07/23 02:42:02;;;;;;;10.20;7.65;;;;;;;14.17;93.49;101632.84;5005261;28;20488;-87
2022/07/23 02:44:28;;;;;;;8.77;7.72;;;;;;;14.13;93.20;101625.97;5010203;28;20038;-88
2022/07/23 02:46:53;;;;;;;9.63;8.27;;;;;;;14.18;94.01;101629.25;4987602;28;20022;-87
2022/07/23 02:49:18;;;;;;;10.50;8.27;;;;;;;14.14;93.04;101628.56;5009912;28;20030;-87
2022/07/23 02:51:44;;;;;;;11.00;8.63;;;;;;;14.06;93.65;101624.56;5013313;28;20018;-87
2022/07/23 02:54:09;;;;;;;11.43;8.13;;;;;;;14.05;94.26;101623.69;5014251;28;20109;-86
2022/07/23 02:56:34;;;;;;;9.15;8.25;;;;;;;13.97;94.44;101625.91;4995215;28;20037;-87
2022/07/23 02:59:00;;;;;;;12.20;9.18;;;;;;;13.87;94.74;101620.16;5008329;28;20022;-86
2022/07/23 03:01:25;;;;;;;10.63;8.38;;;;;;;13.88;94.77;101629.06;5014813;28;20073;-87
2022/07/23 03:03:51;;;;;;;10.95;8.40;;;;;;;13.84;94.73;101624.81;4993465;28;20097;-87
2022/07/23 03:06:16;;;;;;;9.98;7.70;;;;;;;13.85;94.71;101630.09;5006697;28;20026;-87
2022/07/23 03:08:41;;;;;;;10.15;8.18;;;;;;;13.77;94.84;101628.75;4982791;28;20448;-87
2022/07/23 03:11:13;;;;;;;9.38;8.38;;;;;;;13.82;94.93;101630.22;5008102;28;20479;-87
2022/07/23 03:13:40;;;;;;;8.90;7.90;;;;;;;13.85;94.85;101638.13;5001707;28;20084;-85
2022/07/23 03:16:05;;;;;;;10.77;8.35;;;;;;;13.82;94.78;101638.25;5009154;28;20029;-86
2022/07/23 03:18:31;;;;;;;9.93;8.13;;;;;;;13.72;94.92;101642.38;5005871;28;20415;-86
2022/07/23 03:20:56;;;;;;;11.02;7.95;;;;;;;13.72;94.91;101642.38;5000353;28;20037;-86
2022/07/23 03:23:21;;;;;;;10.82;8.52;;;;;;;13.65;95.21;101640.94;5008709;28;20776;-87
2022/07/23 03:25:50;;;;;;;8.90;8.00;;;;;;;13.67;95.57;101641.75;4977776;28;20046;-86
2022/07/23 03:28:17;;;;;;;11.27;8.43;;;;;;;13.62;95.46;101649.13;5004530;28;20029;-87
2022/07/23 03:30:43;;;;;;;11.15;8.43;;;;;;;13.58;95.42;101644.88;5002403;28;20041;-86
2022/07/23 03:33:08;;;;;;;9.38;7.57;;;;;;;13.52;96.04;101642.50;5009191;28;20057;-86
2022/07/23 03:35:34;;;;;;;9.93;8.43;;;;;;;13.52;96.17;101651.41;5003600;28;20046;-86
2022/07/23 03:37:59;;;;;;;12.50;8.68;;;;;;;13.54;96.49;101659.34;4994448;28;20218;-86
2022/07/23 03:40:24;;;;;;;9.55;8.18;;;;;;;13.53;96.07;101657.63;5009630;28;20034;-86
2022/07/23 03:42:50;;;;;;;12.13;8.63;;;;;;;13.50;96.17;101647.06;4983403;28;20055;-87
2022/07/23 03:45:15;;;;;;;10.02;8.20;;;;;;;13.48;95.72;101649.81;5006435;28;20022;-87
2022/07/23 03:47:40;;;;;;;8.77;7.88;;;;;;;13.53;96.03;101657.63;5005154;28;20065;-88
2022/07/23 03:50:07;;;;;;;9.18;8.27;;;;;;;13.51;96.21;101655.03;5012498;28;20026;-87
2022/07/23 03:52:32;;;;;;;9.13;8.23;;;;;;;13.45;96.56;101649.97;5000361;28;20486;-87
2022/07/23 03:54:57;;;;;;;9.75;8.25;;;;;;;13.40;96.27;101660.91;5009118;28;20021;-87
2022/07/23 03:57:23;;;;;;;9.20;8.00;;;;;;;13.34;96.61;101655.00;5008371;28;20033;-87
2022/07/23 03:59:48;;;;;;;10.90;8.82;;;;;;;13.34;97.16;101653.19;4995218;28;20398;-86
2022/07/23 04:02:13;;;;;;;11.35;8.48;;;;;;;13.37;97.30;101655.69;5005276;28;20037;-86
2022/07/23 04:04:39;;;;;;;12.25;8.57;;;;;;;13.36;97.11;101651.28;5020443;28;20029;-87
2022/07/23 04:07:04;;;;;;;9.85;8.25;;;;;;;13.42;97.30;101651.00;5013005;28;20041;-86
2022/07/23 04:09:29;;;;;;;9.13;8.18;;;;;;;13.38;96.83;101651.25;5010785;28;20038;-87
2022/07/23 04:11:54;;;;;;;12.20;8.52;;;;;;;13.40;96.72;101655.56;5015695;28;20025;-87
2022/07/23 04:14:20;;;;;;;9.88;8.40;;;;;;;13.36;96.80;101655.78;4993485;28;20030;-87
2022/07/23 04:16:45;;;;;;;9.43;8.27;;;;;;;13.30;96.94;101654.28;5011404;28;20026;-88
2022/07/23 04:19:10;;;;;;;12.73;7.97;;;;;;;13.31;96.97;101657.81;5007358;28;20045;-88
2022/07/23 04:21:36;;;;;;;8.90;8.00;;;;;;;13.22;97.41;101656.44;5000415;28;20034;-88
2022/07/23 04:24:02;;;;;;;9.77;8.55;;;;;;;13.21;97.47;101660.06;4980413;28;20127;-88
2022/07/23 04:26:27;;;;;;;11.38;8.45;;;;;;;13.27;97.75;101677.63;5004092;28;20034;-88
2022/07/23 04:28:52;;;;;;;10.25;9.18;;;;;;;13.30;97.64;101656.97;5007525;28;20075;-88
2022/07/23 04:31:18;;;;;;;10.13;9.05;;;;;;;13.34;97.33;101671.06;5014180;28;20044;-88
2022/07/23 04:33:43;;;;;;;9.57;8.52;;;;;;;13.37;97.22;101670.88;5012102;28;20034;-88
2022/07/23 04:36:08;;;;;;;10.00;9.02;;;;;;;13.37;97.58;101669.06;5010074;28;20037;-87
2022/07/23 04:38:34;;;;;;;10.55;8.10;;;;;;;13.42;96.79;101672.41;5003127;28;20042;-87
2022/07/23 04:40:59;;;;;;;10.98;8.85;;;;;;;13.44;96.51;101691.03;5013545;28;20067;-87
2022/07/23 04:43:25;;;;;;;12.07;8.45;;;;;;;13.39;96.68;101672.53;5012474;28;20033;-86
2022/07/23 04:45:50;;;;;;;9.80;8.80;;;;;;;13.45;96.74;101688.28;4991874;28;20017;-88
2022/07/23 04:48:15;;;;;;;10.68;8.50;;;;;;;13.45;97.21;101687.41;4992572;28;20025;-87
2022/07/23 04:50:42;;;;;;;12.63;9.40;;;;;;;13.52;96.98;101682.63;5009841;28;20372;-86
2022/07/23 04:53:07;;;;;;;11.05;9.43;;;;;;;13.48;96.84;101687.25;5011636;28;20032;-87
2022/07/23 04:55:33;;;;;;;13.77;9.48;;;;;;;13.53;97.24;101689.72;4989700;28;20022;-87
2022/07/23 04:57:58;;;;;;;10.13;9.13;;;;;;;13.55;96.95;101691.38;4992581;28;20548;-87
2022/07/23 05:00:23;;;;;;;11.32;8.80;;;;;;;13.60;97.03;101697.34;5011080;28;20109;-87
2022/07/23 05:02:49;;;;;;;12.25;10.00;;;;;;;13.62;97.25;101695.44;5009545;28;20075;-86
2022/07/23 05:05:14;;;;;;;12.65;10.43;;;;;;;13.67;97.17;101697.94;5020941;28;20092;-87
2022/07/23 05:07:40;;;;;;;12.93;9.43;;;;;;;13.73;96.73;101700.28;5010254;28;20026;-88
2022/07/23 05:10:05;;;;;;;13.02;9.50;;;;;;;13.79;97.12;101694.59;4986682;28;20029;-87
2022/07/23 05:12:32;;;;;;;14.32;10.13;;;;;;;13.85;96.59;101696.97;4992609;28;20027;-86
2022/07/23 05:14:58;;;;;;;12.63;9.32;;;;;;;13.92;95.92;101701.09;4991585;28;20025;-88
2022/07/23 05:17:23;;;;;;;11.05;9.90;;;;;;;13.98;95.83;101701.72;4990762;28;20025;-88
2022/07/23 05:19:48;;;;;;;13.43;9.95;;;;;;;14.07;95.86;101707.44;5014187;28;20021;-88
2022/07/23 05:22:13;;;;;;;10.85;8.52;;;;;;;14.20;95.20;101707.66;5003714;28;20040;-87
2022/07/23 05:24:39;;;;;;;13.93;9.75;;;;;;;14.25;95.21;101702.94;5015004;28;20026;-87
2022/07/23 05:27:04;;;;;;;11.30;9.38;;;;;;;14.33;95.08;101703.41;4992455;28;20050;-87
2022/07/23 05:29:29;;;;;;;13.02;9.70;;;;;;;14.41;94.83;101706.53;5008697;28;20032;-87
2022/07/23 05:31:54;;;;;;;15.40;10.13;;;;;;;14.44;94.07;101709.06;5015699;28;20025;-86
2022/07/23 05:34:20;;;;;;;13.50;9.90;;;;;;;14.47;93.16;101704.50;5014055;28;20108;-87
2022/07/23 05:36:45;;;;;;;13.55;10.00;;;;;;;14.57;93.71;101711.13;5004915;28;20044;-85
2022/07/23 05:39:11;;;;;;;13.13;10.13;;;;;;;14.61;93.52;101705.50;5015607;28;20072;-87
2022/07/23 05:41:36;;;;;;;11.25;10.05;;;;;;;14.70;93.55;101717.53;5013477;28;20077;-88
2022/07/23 05:44:01;;;;;;;11.43;9.60;;;;;;;14.77;92.44;101718.94;5006966;28;20549;-87
2022/07/23 05:46:27;;;;;;;10.68;9.55;;;;;;;14.82;91.79;101716.00;5010885;28;20191;-86
2022/07/23 05:48:52;;;;;;;13.15;9.43;;;;;;;14.83;90.91;101723.97;5011648;28;20038;-86
2022/07/23 05:51:21;;;;;;;10.65;9.45;;;;;;;14.91;91.23;101720.84;5013506;28;20018;-87
2022/07/23 05:53:47;;;;;;;13.05;9.68;;;;;;;14.94;90.69;101720.69;5003864;28;20065;-86
2022/07/23 05:56:13;;;;;;;11.45;10.25;;;;;;;15.11;91.03;101730.50;4993697;28;20030;-86
2022/07/23 05:58:38;;;;;;;11.57;9.60;;;;;;;15.29;89.85;101733.94;5004833;28;20447;-86
2022/07/23 06:01:03;;;;;;;11.80;9.35;;;;;;;15.40;89.36;101726.16;4998508;28;20061;-86
2022/07/23 06:03:29;;;;;;;10.68;9.57;;;;;;;15.65;87.50;101733.69;5009412;28;20559;-87
2022/07/23 06:05:55;;;;;;;11.43;9.70;;;;;;;15.77;87.42;101727.63;5022954;28;20041;-86
2022/07/23 06:08:20;;;;;;;10.23;8.88;;;;;;;15.94;86.79;101734.69;5006823;28;20034;-85
2022/07/23 06:10:45;;;;;;;10.90;8.60;;;;;;;16.11;85.54;101741.72;5006320;28;20037;-86
2022/07/23 06:13:11;;;;;;;10.73;9.23;;;;;;;16.34;85.89;101745.69;5010094;28;20026;-86
2022/07/23 06:15:36;;;;;;;12.27;8.80;;;;;;;16.56;85.20;101746.13;5019516;28;20018;-86
2022/07/23 06:18:01;;;;;;;9.77;8.63;;;;;;;16.76;84.94;101746.75;5030605;28;20090;-86
2022/07/23 06:20:27;;;;;;;9.52;8.52;;;;;;;16.99;83.35;101748.00;5014987;28;20074;-86
2022/07/23 06:22:52;;;;;;;10.65;8.85;;;;;;;17.14;81.48;101733.56;5025369;28;20033;-86
2022/07/23 06:25:17;;;;;;;12.88;8.55;;;;;;;17.30;82.81;101734.28;5015748;28;20030;-87
2022/07/23 06:27:42;;;;;;;10.18;8.43;;;;;;;17.38;79.80;101740.03;5022407;28;20058;-86
2022/07/23 06:30:10;;;;;;;9.18;8.05;;;;;;;17.46;80.12;101733.28;5031534;28;20037;-86
2022/07/23 06:32:35;;;;;;;8.85;7.95;;;;;;;17.63;78.84;101736.59;5005078;28;20034;-86
2022/07/23 06:35:00;;;;;;;8.48;7.65;;;;;;;17.73;77.93;101742.25;5018426;28;20085;-86
2022/07/23 06:37:26;;;;;;;8.25;7.43;;;;;;;17.80;76.64;101740.03;5008835;28;20128;-86
2022/07/23 06:39:51;;;;;;;9.35;7.30;;;;;;;18.05;76.13;101742.78;5010626;28;20487;-86
2022/07/23 06:42:16;;;;;;;7.90;7.10;;;;;;;18.23;76.73;101748.78;5004402;28;20064;-86
2022/07/23 06:44:41;;;;;;;7.97;7.18;;;;;;;18.25;75.01;101748.66;4979066;28;20022;-87
2022/07/23 06:47:07;;;;;;;8.70;7.28;;;;;;;18.38;74.82;101741.44;5008790;28;20139;-86
2022/07/23 06:49:32;;;;;;;7.38;6.65;;;;;;;18.41;73.33;101744.78;4993513;28;20061;-86
2022/07/23 06:51:58;;;;;;;7.80;7.00;;;;;;;18.50;72.70;101748.66;5021989;28;20029;-87
2022/07/23 06:54:23;;;;;;;7.25;5.72;;;;;;;18.67;72.54;101753.75;5014407;28;20112;-87
2022/07/23 06:56:48;;;;;;;7.75;6.30;;;;;;;18.81;70.83;101758.22;5007949;28;20057;-86
2022/07/23 06:59:14;;;;;;;6.70;6.07;;;;;;;19.09;71.49;101750.81;5010737;28;20017;-88
2022/07/23 07:01:39;;;;;;;8.77;5.90;;;;;;;19.19;70.69;101753.69;5010296;28;20492;-88
2022/07/23 07:04:04;;;;;;;6.53;5.32;;;;;;;19.32;68.25;101744.63;5011263;28;20443;-87
2022/07/23 07:06:30;;;;;;;6.72;5.35;;;;;;;19.50;66.56;101752.34;4989252;28;20124;-88
2022/07/23 07:08:56;;;;;;;7.07;5.60;;;;;;;19.64;67.05;101746.78;5009489;28;20400;-87
2022/07/23 07:11:21;;;;;;;7.60;5.28;;;;;;;19.68;66.70;101742.88;4994935;28;20101;-86
2022/07/23 07:13:46;;;;;;;5.20;4.78;;;;;;;19.75;66.48;101748.69;5012287;28;20464;-86
2022/07/23 07:16:12;;;;;;;5.20;4.70;;;;;;;19.73;66.22;101751.53;5008979;28;20144;-87
2022/07/23 07:18:37;;;;;;;11.15;4.70;;;;;;;19.78;64.69;101752.03;5011260;28;20109;-86
2022/07/23 07:21:02;;;;;;;7.28;5.95;;;;;;;19.86;65.58;101748.75;5015087;28;20559;-86
2022/07/23 07:23:28;;;;;;;7.22;5.10;;;;;;;19.90;64.54;101751.09;5001218;28;20381;-86
2022/07/23 07:25:53;;;;;;;5.40;4.65;;;;;;;20.01;63.67;101754.81;5008328;28;20065;-87
2022/07/23 07:28:18;;;;;;;6.18;4.70;;;;;;;20.30;62.01;101758.84;4991297;28;20121;-88
2022/07/23 07:30:43;;;;;;;5.50;4.45;;;;;;;20.56;60.86;101761.38;5009769;28;20030;-85
2022/07/23 07:33:09;;;;;;;5.68;4.20;;;;;;;20.94;59.10;101760.19;5009917;28;20105;-87
2022/07/23 07:35:34;;;;;;;5.93;4.85;;;;;;;21.16;58.15;101762.91;5009895;28;20036;-87
2022/07/23 07:38:00;;;;;;;5.35;4.20;;;;;;;21.51;60.97;101770.88;4990208;28;20136;-88
2022/07/23 07:40:26;;;;;;;5.22;4.13;;;;;;;21.89;58.84;101766.81;4992445;28;20030;-86
2022/07/23 07:42:53;;;;;;;6.07;4.57;;;;;;;22.11;54.93;101771.28;4992224;28;20018;-87
2022/07/23 07:45:23;;;;;;;5.10;4.30;;;;;;;22.52;56.20;101770.47;5011134;28;20030;-87
2022/07/23 07:47:49;;;;;;;6.75;4.75;;;;;;;23.03;52.38;101763.34;4991028;28;20029;-86
2022/07/23 07:50:14;;;;;;;4.68;3.75;;;;;;;23.53;53.89;101763.34;5009947;28;20068;-85
2022/07/23 07:52:39;;;;;;;6.03;4.60;;;;;;;23.76;51.01;101770.28;5008926;28;20424;-86
2022/07/23 07:55:07;;;;;;;5.57;4.60;;;;;;;23.93;49.98;101767.88;4994806;28;20116;-86
2022/07/23 07:57:32;;;;;;;6.70;4.22;;;;;;;23.73;49.01;101776.00;4992385;28;20424;-86
2022/07/23 07:59:58;;;;;;;6.68;4.53;;;;;;;23.94;49.15;101773.16;5012325;28;20034;-87
2022/07/23 08:02:23;;;;;;;7.90;4.35;;;;;;;24.43;47.42;101775.88;4980945;28;20062;-87
2022/07/23 08:04:48;;;;;;;7.40;4.65;;;;;;;24.93;47.63;101772.88;4993695;28;20021;-86
2022/07/23 08:07:14;;;;;;;6.07;3.75;;;;;;;25.24;45.10;101773.50;5008429;28;20033;-86
2022/07/23 08:09:39;;;;;;;4.95;4.07;;;;;;;25.46;44.97;101780.41;5010148;28;20026;-86
2022/07/23 08:12:05;;;;;;;6.25;4.60;;;;;;;25.80;44.99;101775.19;4992821;28;20029;-87
2022/07/23 08:14:30;;;;;;;4.57;3.67;;;;;;;26.18;43.55;101771.28;4991737;28;20492;-87
2022/07/23 08:16:56;;;;;;;7.72;4.55;;;;;;;26.54;42.88;101776.69;5006255;28;20235;-87
2022/07/23 08:19:21;;;;;;;5.10;4.60;;;;;;;26.75;40.45;101766.28;5009289;28;20032;-87
2022/07/23 08:21:46;;;;;;;5.55;4.10;;;;;;;27.07;40.64;101772.91;5003376;28;20087;-87
2022/07/23 08:24:11;;;;;;;4.80;3.83;;;;;;;27.67;41.66;101772.81;4995010;28;20022;-86
2022/07/23 08:26:37;;;;;;;5.65;3.97;;;;;;;28.18;40.63;101773.59;4992553;28;20057;-88
2022/07/23 08:29:02;;;;;;;5.00;3.83;;;;;;;28.38;38.12;101773.28;5002495;28;20033;-84
2022/07/23 08:31:27;;;;;;;5.07;3.83;;;;;;;28.51;38.81;101785.44;5021015;28;20022;-86
2022/07/23 08:33:54;;;;;;;8.23;4.55;;;;;;;28.63;37.55;101783.16;5005420;28;20487;-84
2022/07/23 08:36:19;;;;;;;6.30;4.57;;;;;;;29.01;36.56;101791.66;5007992;28;20080;-84
2022/07/23 08:38:44;;;;;;;5.93;3.70;;;;;;;29.22;35.85;101793.81;5012087;28;20034;-88
2022/07/23 08:41:10;;;;;;;5.55;3.35;;;;;;;29.77;34.89;101787.41;5012800;28;20049;-88
2022/07/23 08:43:35;;;;;;;6.25;3.88;;;;;;;29.86;35.05;101789.06;5018788;28;20053;-87
2022/07/23 08:46:02;;;;;;;5.15;3.70;;;;;;;29.95;33.20;101792.59;5008874;28;20118;-86
2022/07/23 08:48:32;;;;;;;5.25;3.50;;;;;;;29.34;34.47;101799.78;5016772;28;20038;-85
2022/07/23 08:51:01;;;;;;;3.25;2.90;;;;;;;29.33;33.39;101803.56;5009281;28;20031;-86
2022/07/23 08:53:28;;;;;;;4.55;3.50;;;;;;;28.90;33.77;101805.72;5003751;28;20030;-86
2022/07/23 08:55:56;;;;;;;4.53;3.45;;;;;;;29.36;35.41;101805.94;5006275;28;20037;-87
2022/07/23 08:58:23;;;;;;;5.65;4.03;;;;;;;30.31;33.53;101801.09;5002938;28;20042;-88
2022/07/23 09:00:49;;;;;;;5.03;3.67;;;;;;;30.76;33.07;101794.66;4992557;28;20383;-90
2022/07/23 09:03:17;;;;;;;4.68;3.47;;;;;;;30.92;32.22;101807.38;4998714;28;20033;-88
2022/07/23 09:05:42;;;;;;;6.10;3.53;;;;;;;31.31;32.04;101809.06;5002307;28;20022;-85
2022/07/23 09:08:09;;;;;;;4.93;3.65;;;;;;;31.38;30.70;101798.97;5009415;28;20040;-86
2022/07/23 09:10:52;;;;;;;6.68;4.10;;;;;;;31.11;32.73;101805.97;5004895;28;20124;-86
2022/07/23 09:13:46;;;;;;;6.22;4.25;;;;;;;31.40;33.09;101790.53;4986365;28;20401;-85
2022/07/23 09:16:19;;;;;;;8.07;4.00;;;;;;;32.05;31.27;101797.84;4998561;28;20508;-88
2022/07/23 09:18:53;;;;;;;4.75;4.25;;;;;;;31.97;30.64;101792.47;5009417;28;20034;-87
2022/07/23 09:21:21;;;;;;;7.20;4.57;;;;;;;32.14;30.40;101795.81;4998923;28;20030;-88
2022/07/23 09:23:53;;;;;;;5.60;4.05;;;;;;;32.81;29.53;101786.19;5005169;28;20040;-87
2022/07/23 09:26:35;;;;;;;6.15;3.70;;;;;;;33.77;29.70;101792.63;4986921;28;20092;-88
2022/07/23 09:29:05;;;;;;;6.85;4.57;;;;;;;33.63;29.19;101794.53;4977722;28;20038;-87
2022/07/23 09:31:33;;;;;;;7.30;4.95;;;;;;;33.43;28.20;101790.81;4991218;28;20026;-88
2022/07/23 09:34:08;;;;;;;7.15;4.95;;;;;;;33.17;29.11;101792.38;5008892;28;20022;-89
2022/07/23 09:36:33;;;;;;;6.05;5.45;;;;;;;33.29;27.92;101794.56;5004648;28;20030;-88
2022/07/23 09:38:59;;;;;;;5.78;4.40;;;;;;;33.74;28.42;101792.22;4998215;28;20615;-88
2022/07/23 09:41:24;;;;;;;5.07;4.60;;;;;;;34.34;27.78;101787.66;4998918;28;20283;-88
2022/07/23 09:43:55;;;;;;;5.35;4.80;;;;;;;35.18;28.30;101800.75;4988516;28;20475;-88
2022/07/23 09:46:27;;;;;;;5.30;4.65;;;;;;;35.77;26.33;101807.13;5012252;28;20033;-87
2022/07/23 09:48:56;;;;;;;5.97;5.45;;;;;;;35.51;25.38;101817.25;4987729;28;20033;-89
2022/07/23 09:51:35;;;;;;;7.43;5.68;;;;;;;34.56;26.15;101813.19;5014310;28;20084;-91
2022/07/23 09:54:00;;;;;;;6.72;5.50;;;;;;;34.11;26.75;101805.50;5009113;28;20025;-89
2022/07/23 09:56:27;;;;;;;6.22;5.10;;;;;;;34.31;27.00;101807.41;5021611;28;20233;-89
2022/07/23 09:59:07;;;;;;;6.55;5.78;;;;;;;34.57;27.97;101810.22;5033808;28;20029;-90
2022/07/23 10:01:33;;;;;;;6.78;5.60;;;;;;;34.58;28.15;101803.63;5025676;28;20757;-91
2022/07/23 10:03:59;;;;;;;7.65;6.55;;;;;;;34.54;25.54;101810.66;5023613;28;20026;-91
2022/07/23 10:06:25;;;;;;;6.45;5.30;;;;;;;34.73;24.59;101806.16;5010048;28;20034;-90
2022/07/23 10:08:52;;;;;;;5.18;4.78;;;;;;;35.35;25.67;101807.50;5008561;28;20057;-90
2022/07/23 10:11:18;;;;;;;6.63;5.30;;;;;;;36.09;23.95;101800.56;5013385;28;20295;-89
2022/07/23 10:13:56;;;;;;;6.20;5.60;;;;;;;35.91;24.48;101814.28;5020149;28;20040;-91
2022/07/23 10:16:22;;;;;;;5.53;4.82;;;;;;;36.04;23.83;101799.53;5008894;28;20092;-90
2022/07/23 10:18:48;;;;;;;5.50;4.80;;;;;;;35.66;24.18;101797.63;5000837;28;20038;-90
2022/07/23 10:21:23;;;;;;;6.95;5.82;;;;;;;35.48;25.26;101800.25;5002413;28;20045;-90
2022/07/23 10:24:07;;;;;;;7.68;5.40;;;;;;;35.12;25.92;101801.66;5008480;28;20491;-93
2022/07/23 10:26:43;;;;;;;6.38;4.55;;;;;;;35.92;25.59;101807.69;5012573;28;20521;-88
2022/07/23 10:29:17;;;;;;;5.50;4.68;;;;;;;37.08;24.10;101803.50;5008515;28;20030;-89
2022/07/23 10:32:00;;;;;;;5.32;4.82;;;;;;;37.87;22.81;101804.44;4985913;28;20034;-88
2022/07/23 10:34:35;;;;;;;5.82;4.40;;;;;;;38.30;22.16;101806.97;4994100;28;20045;-87
2022/07/23 10:37:24;;;;;;;7.97;5.05;;;;;;;38.89;22.90;101800.66;4997444;28;20081;-88
2022/07/23 10:40:13;;;;;;;5.43;4.93;;;;;;;38.71;22.42;101796.88;5004281;28;20042;-89
2022/07/23 10:42:39;;;;;;;4.55;4.15;;;;;;;38.44;21.57;101799.28;5024239;28;20530;-88
2022/07/23 10:45:34;;;;;;;4.43;4.03;;;;;;;38.42;22.69;101801.47;5009337;28;20205;-93
2022/07/23 10:48:20;;;;;;;4.10;3.60;;;;;;;38.70;22.09;101809.06;4984893;28;20122;-92
2022/07/23 10:51:14;;;;;;;4.10;3.50;;;;;;;39.13;21.48;101804.22;4993895;28;20026;-91
2022/07/23 10:53:53;;;;;;;5.05;3.95;;;;;;;39.31;20.23;101798.53;5005333;28;20025;-90
2022/07/23 10:56:49;;;;;;;5.38;3.08;;;;;;;39.55;21.60;101802.94;4987128;28;20022;-89
2022/07/23 10:59:14;;;;;;;4.18;3.20;;;;;;;40.00;19.69;101804.91;4994427;28;20051;-89
2022/07/23 11:01:40;;;;;;;3.50;2.63;;;;;;;40.69;19.22;101803.88;5012019;28;20031;-91
2022/07/23 11:04:07;;;;;;;5.95;3.35;;;;;;;40.71;18.81;101805.28;5013059;28;20475;-92
2022/07/23 11:06:48;;;;;;;4.28;3.70;;;;;;;40.41;19.65;101800.03;5013286;28;20026;-92
2022/07/23 11:09:39;;;;;;;4.38;2.75;;;;;;;39.71;20.54;101806.88;5009791;28;20097;-92
2022/07/23 11:12:13;;;;;;;5.05;4.15;;;;;;;39.42;19.87;101805.13;5005404;28;20045;-91
2022/07/23 11:15:10;;;;;;;4.10;3.53;;;;;;;39.51;20.18;101800.88;4991300;28;20034;-91
2022/07/23 11:17:59;;;;;;;3.47;3.17;;;;;;;39.65;19.88;101793.06;4999910;28;20039;-87
2022/07/23 11:20:25;;;;;;;5.22;3.42;;;;;;;38.88;19.65;101797.03;4996785;28;20026;-90
2022/07/23 11:22:59;;;;;;;4.90;3.50;;;;;;;38.54;20.50;101795.88;5000098;28;20033;-92